sensor_id;sensor_type;location;lat;lon;timestamp;pressure;altitude;pressure_sealevel;temperature;humidity
6208;BME280;3137;51.550;7.060;2023-09-12T00:00:05;100969.41;;;20.14;81.36
6208;BME280;3137;51.550;7.060;2023-09-12T00:02:37;100961.88;;;20.16;81.06
6208;BME280;3137;51.550;7.060;2023-09-12T00:05:04;100959.81;;;20.11;80.98
6208;BME280;3137;51.550;7.060;2023-09-12T00:07:30;100967.31;;;20.09;81.66
6208;BME280;3137;51.550;7.060;2023-09-12T00:09:57;100966.47;;;20.08;81.27
6208;BME280;3137;51.550;7.060;2023-09-12T00:12:24;100968.97;;;20.10;81.51
6208;BME280;3137;51.550;7.060;2023-09-12T00:14:54;100978.41;;;20.34;80.15
6208;BME280;3137;51.550;7.060;2023-09-12T00:17:20;100967.31;;;20.09;80.79
6208;BME280;3137;51.550;7.060;2023-09-12T00:19:47;100963.97;;;19.94;81.13
6208;BME280;3137;51.550;7.060;2023-09-12T00:22:13;100958.50;;;19.81;81.78
6208;BME280;3137;51.550;7.060;2023-09-12T00:24:40;100953.69;;;19.76;82.32
6208;BME280;3137;51.550;7.060;2023-09-12T00:27:07;100943.47;;;19.72;82.13
6208;BME280;3137;51.550;7.060;2023-09-12T00:29:34;100952.63;;;19.71;82.65
6208;BME280;3137;51.550;7.060;2023-09-12T00:32:00;100957.03;;;19.72;82.76
6208;BME280;3137;51.550;7.060;2023-09-12T00:34:28;100974.16;;;19.72;82.61
6208;BME280;3137;51.550;7.060;2023-09-12T00:36:54;100996.31;;;20.02;81.89
6208;BME280;3137;51.550;7.060;2023-09-12T00:39:20;101013.91;;;20.19;80.73
6208;BME280;3137;51.550;7.060;2023-09-12T00:41:47;101015.31;;;20.02;81.23
6208;BME280;3137;51.550;7.060;2023-09-12T00:44:13;101034.72;;;19.99;82.17
6208;BME280;3137;51.550;7.060;2023-09-12T00:46:41;101054.88;;;19.64;84.98
6208;BME280;3137;51.550;7.060;2023-09-12T00:49:10;101093.41;;;19.52;86.21
6208;BME280;3137;51.550;7.060;2023-09-12T00:51:37;101096.59;;;19.63;87.02
6208;BME280;3137;51.550;7.060;2023-09-12T00:54:03;101104.13;;;19.67;87.60
6208;BME280;3137;51.550;7.060;2023-09-12T00:56:30;101033.19;;;19.70;87.38
6208;BME280;3137;51.550;7.060;2023-09-12T00:58:57;100883.28;;;19.42;89.01
6208;BME280;3137;51.550;7.060;2023-09-12T01:01:24;100849.91;;;19.41;88.83
6208;BME280;3137;51.550;7.060;2023-09-12T01:03:51;100848.47;;;19.52;89.09
6208;BME280;3137;51.550;7.060;2023-09-12T01:06:19;100825.97;;;19.58;89.03
6208;BME280;3137;51.550;7.060;2023-09-12T01:08:48;100822.00;;;19.54;88.02
6208;BME280;3137;51.550;7.060;2023-09-12T01:11:14;100844.75;;;19.59;87.91
6208;BME280;3137;51.550;7.060;2023-09-12T01:13:43;100880.84;;;19.73;87.39
6208;BME280;3137;51.550;7.060;2023-09-12T01:16:09;100903.81;;;19.84;87.04
6208;BME280;3137;51.550;7.060;2023-09-12T01:18:36;100923.03;;;20.02;85.67
6208;BME280;3137;51.550;7.060;2023-09-12T01:24:21;100928.47;;;20.22;85.16
6208;BME280;3137;51.550;7.060;2023-09-12T01:27:17;100936.19;;;20.18;85.28
6208;BME280;3137;51.550;7.060;2023-09-12T01:29:39;100942.69;;;20.24;84.63
6208;BME280;3137;51.550;7.060;2023-09-12T01:32:06;100930.97;;;20.10;84.73
6208;BME280;3137;51.550;7.060;2023-09-12T01:34:33;100924.69;;;20.03;85.04
6208;BME280;3137;51.550;7.060;2023-09-12T01:36:59;100925.75;;;20.02;85.73
6208;BME280;3137;51.550;7.060;2023-09-12T01:39:25;100936.81;;;20.27;84.63
6208;BME280;3137;51.550;7.060;2023-09-12T01:41:53;100937.03;;;20.19;84.33
6208;BME280;3137;51.550;7.060;2023-09-12T01:44:24;100936.41;;;20.17;84.73
6208;BME280;3137;51.550;7.060;2023-09-12T01:46:51;100924.06;;;20.07;85.05
6208;BME280;3137;51.550;7.060;2023-09-12T01:49:21;100912.19;;;20.02;85.74
6208;BME280;3137;51.550;7.060;2023-09-12T01:51:48;100913.22;;;20.01;85.63
6208;BME280;3137;51.550;7.060;2023-09-12T01:54:15;100927.84;;;20.06;85.36
6208;BME280;3137;51.550;7.060;2023-09-12T01:56:43;100950.63;;;20.19;84.02
6208;BME280;3137;51.550;7.060;2023-09-12T01:59:10;100954.16;;;20.13;84.60
6208;BME280;3137;51.550;7.060;2023-09-12T02:01:37;100953.94;;;20.14;84.59
6208;BME280;3137;51.550;7.060;2023-09-12T02:04:03;100958.53;;;20.14;84.85
6208;BME280;3137;51.550;7.060;2023-09-12T02:06:35;100954.78;;;20.01;85.28
6208;BME280;3137;51.550;7.060;2023-09-12T02:09:01;100946.00;;;19.93;85.53
6208;BME280;3137;51.550;7.060;2023-09-12T02:11:28;100943.47;;;19.91;85.85
6208;BME280;3137;51.550;7.060;2023-09-12T02:13:55;100932.63;;;19.91;85.82
6208;BME280;3137;51.550;7.060;2023-09-12T02:16:21;100922.81;;;19.90;86.16
6208;BME280;3137;51.550;7.060;2023-09-12T02:18:48;100903.81;;;19.84;86.21
6208;BME280;3137;51.550;7.060;2023-09-12T02:21:14;100893.41;;;19.81;86.52
6208;BME280;3137;51.550;7.060;2023-09-12T02:23:42;100887.13;;;19.80;86.20
6208;BME280;3137;51.550;7.060;2023-09-12T02:26:08;100894.22;;;19.75;86.66
6208;BME280;3137;51.550;7.060;2023-09-12T02:28:35;100921.75;;;19.78;86.92
6208;BME280;3137;51.550;7.060;2023-09-12T02:31:01;100934.28;;;19.79;86.57
6208;BME280;3137;51.550;7.060;2023-09-12T02:33:28;100945.38;;;20.17;85.28
6208;BME280;3137;51.550;7.060;2023-09-12T02:35:54;100965.22;;;20.18;85.04
6208;BME280;3137;51.550;7.060;2023-09-12T02:38:21;100934.94;;;20.01;85.62
6208;BME280;3137;51.550;7.060;2023-09-12T02:40:47;100924.91;;;19.95;86.15
6208;BME280;3137;51.550;7.060;2023-09-12T02:43:14;100928.03;;;19.85;86.57
6208;BME280;3137;51.550;7.060;2023-09-12T02:45:40;100939.72;;;19.79;86.96
6208;BME280;3137;51.550;7.060;2023-09-12T02:48:07;100955.16;;;19.79;87.18
6208;BME280;3137;51.550;7.060;2023-09-12T02:50:33;100972.28;;;19.92;86.57
6208;BME280;3137;51.550;7.060;2023-09-12T02:53:00;100956.03;;;19.86;86.30
6208;BME280;3137;51.550;7.060;2023-09-12T02:55:27;100968.53;;;19.87;87.09
6208;BME280;3137;51.550;7.060;2023-09-12T02:57:53;100955.84;;;20.07;86.04
6208;BME280;3137;51.550;7.060;2023-09-12T03:00:19;100962.25;;;19.86;86.38
6208;BME280;3137;51.550;7.060;2023-09-12T03:02:46;100992.56;;;19.96;86.73
6208;BME280;3137;51.550;7.060;2023-09-12T03:05:13;100979.44;;;20.06;86.68
6208;BME280;3137;51.550;7.060;2023-09-12T03:07:39;100988.16;;;19.89;87.45
6208;BME280;3137;51.550;7.060;2023-09-12T03:10:07;100972.31;;;19.86;87.33
6208;BME280;3137;51.550;7.060;2023-09-12T03:12:35;100953.69;;;19.76;88.07
6208;BME280;3137;51.550;7.060;2023-09-12T03:15:02;100907.56;;;19.70;88.29
6208;BME280;3137;51.550;7.060;2023-09-12T03:17:29;100890.84;;;19.66;88.23
6208;BME280;3137;51.550;7.060;2023-09-12T03:19:56;100888.97;;;19.53;89.26
6208;BME280;3137;51.550;7.060;2023-09-12T03:22:22;100897.09;;;19.53;89.30
6208;BME280;3137;51.550;7.060;2023-09-12T03:24:49;100898.34;;;19.51;89.21
6208;BME280;3137;51.550;7.060;2023-09-12T03:27:15;100898.97;;;19.46;89.43
6208;BME280;3137;51.550;7.060;2023-09-12T03:29:46;100907.09;;;19.53;89.38
6208;BME280;3137;51.550;7.060;2023-09-12T03:32:13;100895.66;;;19.51;89.18
6208;BME280;3137;51.550;7.060;2023-09-12T03:34:39;100886.25;;;19.47;89.26
6208;BME280;3137;51.550;7.060;2023-09-12T03:37:06;100887.72;;;19.43;89.62
6208;BME280;3137;51.550;7.060;2023-09-12T03:39:32;100884.13;;;19.42;89.60
6208;BME280;3137;51.550;7.060;2023-09-12T03:41:59;100889.34;;;19.44;89.63
6208;BME280;3137;51.550;7.060;2023-09-12T03:44:26;100891.25;;;19.43;89.90
6208;BME280;3137;51.550;7.060;2023-09-12T03:46:52;100883.94;;;19.44;89.59
6208;BME280;3137;51.550;7.060;2023-09-12T03:49:19;100879.34;;;19.44;89.62
6208;BME280;3137;51.550;7.060;2023-09-12T03:51:45;100876.19;;;19.41;89.47
6208;BME280;3137;51.550;7.060;2023-09-12T03:54:12;100866.38;;;19.40;90.06
6208;BME280;3137;51.550;7.060;2023-09-12T03:56:38;100879.09;;;19.39;89.86
6208;BME280;3137;51.550;7.060;2023-09-12T03:59:05;100873.66;;;19.39;89.68
6208;BME280;3137;51.550;7.060;2023-09-12T04:01:31;100864.72;;;19.39;90.04
6208;BME280;3137;51.550;7.060;2023-09-12T04:03:58;100854.50;;;19.41;89.58
6208;BME280;3137;51.550;7.060;2023-09-12T04:06:29;100848.22;;;19.34;89.84
6208;BME280;3137;51.550;7.060;2023-09-12T04:08:56;100836.13;;;19.30;89.65
6208;BME280;3137;51.550;7.060;2023-09-12T04:11:22;100837.97;;;19.23;90.04
6208;BME280;3137;51.550;7.060;2023-09-12T04:14:08;100837.34;;;19.21;90.43
6208;BME280;3137;51.550;7.060;2023-09-12T04:16:35;100838.59;;;19.18;90.38
6208;BME280;3137;51.550;7.060;2023-09-12T04:19:02;100830.88;;;19.15;90.57
6208;BME280;3137;51.550;7.060;2023-09-12T04:21:29;100834.84;;;19.12;90.34
6208;BME280;3137;51.550;7.060;2023-09-12T04:23:56;100833.16;;;19.11;90.54
6208;BME280;3137;51.550;7.060;2023-09-12T04:26:22;100841.28;;;19.11;90.51
6208;BME280;3137;51.550;7.060;2023-09-12T04:28:49;100841.94;;;19.13;90.22
6208;BME280;3137;51.550;7.060;2023-09-12T04:31:16;100848.16;;;19.14;90.19
6208;BME280;3137;51.550;7.060;2023-09-12T04:33:42;100851.09;;;19.12;90.40
6208;BME280;3137;51.550;7.060;2023-09-12T04:36:09;100844.66;;;19.13;90.08
6208;BME280;3137;51.550;7.060;2023-09-12T04:38:36;100853.16;;;19.10;90.50
6208;BME280;3137;51.550;7.060;2023-09-12T04:41:03;100851.91;;;19.06;90.57
6208;BME280;3137;51.550;7.060;2023-09-12T04:43:32;100853.59;;;19.07;90.32
6208;BME280;3137;51.550;7.060;2023-09-12T04:45:58;100851.06;;;19.06;90.44
6208;BME280;3137;51.550;7.060;2023-09-12T04:48:25;100864.84;;;19.04;90.37
6208;BME280;3137;51.550;7.060;2023-09-12T04:50:52;100868.56;;;19.03;90.22
6208;BME280;3137;51.550;7.060;2023-09-12T04:53:18;100870.25;;;19.04;90.32
6208;BME280;3137;51.550;7.060;2023-09-12T04:55:45;100872.31;;;19.02;90.42
6208;BME280;3137;51.550;7.060;2023-09-12T04:58:11;100877.53;;;19.04;90.31
6208;BME280;3137;51.550;7.060;2023-09-12T05:00:39;100879.84;;;19.00;90.40
6208;BME280;3137;51.550;7.060;2023-09-12T05:03:06;100880.44;;;19.02;90.28
6208;BME280;3137;51.550;7.060;2023-09-12T05:05:34;100881.69;;;19.00;90.76
6208;BME280;3137;51.550;7.060;2023-09-12T05:08:03;100882.53;;;19.00;90.53
6208;BME280;3137;51.550;7.060;2023-09-12T05:10:30;100890.44;;;19.02;90.77
6208;BME280;3137;51.550;7.060;2023-09-12T05:12:57;100886.50;;;19.04;90.98
6208;BME280;3137;51.550;7.060;2023-09-12T05:15:23;100889.84;;;19.06;90.89
6208;BME280;3137;51.550;7.060;2023-09-12T05:17:50;100886.94;;;19.08;90.95
6208;BME280;3137;51.550;7.060;2023-09-12T05:20:16;100879.44;;;19.10;90.56
6208;BME280;3137;51.550;7.060;2023-09-12T05:22:43;100878.41;;;19.11;90.50
6208;BME280;3137;51.550;7.060;2023-09-12T05:25:09;100888.81;;;19.14;90.79
6208;BME280;3137;51.550;7.060;2023-09-12T05:27:36;100893.28;;;19.35;89.63
6208;BME280;3137;51.550;7.060;2023-09-12T05:30:03;100910.84;;;19.52;88.55
6208;BME280;3137;51.550;7.060;2023-09-12T05:32:29;100925.91;;;19.54;88.53
6208;BME280;3137;51.550;7.060;2023-09-12T05:34:56;100934.47;;;19.58;88.52
6208;BME280;3137;51.550;7.060;2023-09-12T05:37:41;100925.81;;;19.35;89.38
6208;BME280;3137;51.550;7.060;2023-09-12T05:40:08;100915.78;;;19.29;90.20
6208;BME280;3137;51.550;7.060;2023-09-12T05:42:36;100906.56;;;19.23;90.12
6208;BME280;3137;51.550;7.060;2023-09-12T05:45:03;100889.47;;;19.23;90.40
6208;BME280;3137;51.550;7.060;2023-09-12T05:47:29;100870.69;;;19.14;90.95
6208;BME280;3137;51.550;7.060;2023-09-12T05:49:56;100871.72;;;19.07;90.55
6208;BME280;3137;51.550;7.060;2023-09-12T05:52:22;100892.78;;;19.11;90.86
6208;BME280;3137;51.550;7.060;2023-09-12T05:54:49;100918.69;;;19.21;90.75
6208;BME280;3137;51.550;7.060;2023-09-12T05:57:16;100918.78;;;19.47;89.71
6208;BME280;3137;51.550;7.060;2023-09-12T05:59:43;100915.78;;;19.29;90.50
6208;BME280;3137;51.550;7.060;2023-09-12T06:02:10;100917.41;;;19.16;91.05
6208;BME280;3137;51.550;7.060;2023-09-12T06:04:36;100931.38;;;19.13;91.55
6208;BME280;3137;51.550;7.060;2023-09-12T06:07:04;100940.31;;;19.14;91.58
6208;BME280;3137;51.550;7.060;2023-09-12T06:09:31;100962.84;;;19.14;91.67
6208;BME280;3137;51.550;7.060;2023-09-12T06:11:57;100963.69;;;19.15;91.51
6208;BME280;3137;51.550;7.060;2023-09-12T06:14:24;100969.94;;;19.15;91.96
6208;BME280;3137;51.550;7.060;2023-09-12T06:16:50;100971.22;;;19.20;92.01
6208;BME280;3137;51.550;7.060;2023-09-12T06:19:17;100980.41;;;19.25;91.81
6208;BME280;3137;51.550;7.060;2023-09-12T06:21:45;100984.72;;;19.47;90.75
6208;BME280;3137;51.550;7.060;2023-09-12T06:24:17;100984.50;;;19.49;90.54
6208;BME280;3137;51.550;7.060;2023-09-12T06:26:43;100992.88;;;19.60;90.46
6208;BME280;3137;51.550;7.060;2023-09-12T06:29:10;101019.66;;;19.77;89.64
6208;BME280;3137;51.550;7.060;2023-09-12T06:31:36;101062.94;;;19.50;90.99
6208;BME280;3137;51.550;7.060;2023-09-12T06:34:03;101097.00;;;19.32;91.75
6208;BME280;3137;51.550;7.060;2023-09-12T06:36:30;101118.63;;;19.18;91.93
6208;BME280;3137;51.550;7.060;2023-09-12T06:38:57;101116.13;;;19.17;92.24
6208;BME280;3137;51.550;7.060;2023-09-12T06:41:24;101084.59;;;19.09;92.73
6208;BME280;3137;51.550;7.060;2023-09-12T06:43:50;101033.69;;;19.05;92.94
6208;BME280;3137;51.550;7.060;2023-09-12T06:46:17;100996.38;;;19.07;92.86
6208;BME280;3137;51.550;7.060;2023-09-12T06:48:47;100963.00;;;19.00;93.11
6208;BME280;3137;51.550;7.060;2023-09-12T06:51:17;100930.44;;;18.93;93.95
6208;BME280;3137;51.550;7.060;2023-09-12T06:53:43;100943.97;;;18.93;94.02
6208;BME280;3137;51.550;7.060;2023-09-12T06:56:10;100956.06;;;18.91;94.06
6208;BME280;3137;51.550;7.060;2023-09-12T06:58:37;100982.38;;;19.03;94.20
6208;BME280;3137;51.550;7.060;2023-09-12T07:01:04;100971.97;;;19.00;93.87
6208;BME280;3137;51.550;7.060;2023-09-12T07:03:33;100964.44;;;18.96;94.02
6208;BME280;3137;51.550;7.060;2023-09-12T07:05:59;100930.06;;;18.96;94.37
6208;BME280;3137;51.550;7.060;2023-09-12T07:08:26;100940.06;;;18.96;94.14
6208;BME280;3137;51.550;7.060;2023-09-12T07:10:55;100955.25;;;18.97;94.72
6208;BME280;3137;51.550;7.060;2023-09-12T07:13:23;100953.78;;;18.94;94.24
6208;BME280;3137;51.550;7.060;2023-09-12T07:15:50;100934.41;;;18.97;94.02
6208;BME280;3137;51.550;7.060;2023-09-12T07:18:17;100946.91;;;18.92;94.31
6208;BME280;3137;51.550;7.060;2023-09-12T07:20:45;100964.38;;;18.89;94.42
6208;BME280;3137;51.550;7.060;2023-09-12T07:23:12;100958.13;;;18.89;94.17
6208;BME280;3137;51.550;7.060;2023-09-12T07:25:39;100958.97;;;18.89;94.48
6208;BME280;3137;51.550;7.060;2023-09-12T07:28:07;100970.03;;;18.88;94.10
6208;BME280;3137;51.550;7.060;2023-09-12T07:30:35;100954.38;;;18.90;94.41
6208;BME280;3137;51.550;7.060;2023-09-12T07:33:03;100952.50;;;18.84;94.02
6208;BME280;3137;51.550;7.060;2023-09-12T07:35:30;100956.47;;;18.88;94.42
6208;BME280;3137;51.550;7.060;2023-09-12T07:37:57;100955.03;;;18.92;94.29
6208;BME280;3137;51.550;7.060;2023-09-12T07:40:23;100966.09;;;18.97;94.44
6208;BME280;3137;51.550;7.060;2023-09-12T07:42:50;100969.63;;;18.97;94.47
6208;BME280;3137;51.550;7.060;2023-09-12T07:45:16;100965.28;;;19.03;94.06
6208;BME280;3137;51.550;7.060;2023-09-12T07:47:43;100959.69;;;19.04;94.01
6208;BME280;3137;51.550;7.060;2023-09-12T07:50:09;100965.28;;;19.03;93.55
6208;BME280;3137;51.550;7.060;2023-09-12T07:52:36;100960.06;;;19.01;94.26
6208;BME280;3137;51.550;7.060;2023-09-12T07:55:03;100956.53;;;19.01;94.04
6208;BME280;3137;51.550;7.060;2023-09-12T07:57:29;100952.78;;;19.02;94.31
6208;BME280;3137;51.550;7.060;2023-09-12T07:59:56;100939.88;;;19.04;93.82
6208;BME280;3137;51.550;7.060;2023-09-12T08:02:23;100931.53;;;19.05;94.40
6208;BME280;3137;51.550;7.060;2023-09-12T08:04:50;100931.16;;;19.08;93.78
6208;BME280;3137;51.550;7.060;2023-09-12T08:07:22;100943.25;;;19.12;93.91
6208;BME280;3137;51.550;7.060;2023-09-12T08:09:56;100940.13;;;19.15;94.39
6208;BME280;3137;51.550;7.060;2023-09-12T08:12:25;100942.84;;;19.15;93.92
6208;BME280;3137;51.550;7.060;2023-09-12T08:14:52;100944.50;;;19.16;93.74
6208;BME280;3137;51.550;7.060;2023-09-12T08:17:19;100951.63;;;19.17;94.13
6208;BME280;3137;51.550;7.060;2023-09-12T08:19:45;100951.63;;;19.17;94.15
6208;BME280;3137;51.550;7.060;2023-09-12T08:22:12;100960.78;;;19.16;94.32
6208;BME280;3137;51.550;7.060;2023-09-12T08:24:40;100949.94;;;19.16;93.72
6208;BME280;3137;51.550;7.060;2023-09-12T08:27:07;100948.06;;;19.17;93.78
6208;BME280;3137;51.550;7.060;2023-09-12T08:29:35;100954.94;;;19.20;93.87
6208;BME280;3137;51.550;7.060;2023-09-12T08:32:02;100961.63;;;19.24;94.09
6208;BME280;3137;51.550;7.060;2023-09-12T08:34:29;100968.09;;;19.23;94.03
6208;BME280;3137;51.550;7.060;2023-09-12T08:36:55;100967.28;;;19.22;93.96
6208;BME280;3137;51.550;7.060;2023-09-12T08:39:26;100967.06;;;19.24;93.64
6208;BME280;3137;51.550;7.060;2023-09-12T08:41:53;100976.22;;;19.23;93.46
6208;BME280;3137;51.550;7.060;2023-09-12T08:44:20;100973.97;;;19.26;93.49
6208;BME280;3137;51.550;7.060;2023-09-12T08:46:47;100968.31;;;19.28;93.96
6208;BME280;3137;51.550;7.060;2023-09-12T08:49:14;100984.22;;;19.31;94.09
6208;BME280;3137;51.550;7.060;2023-09-12T08:51:42;100984.81;;;19.33;93.80
6208;BME280;3137;51.550;7.060;2023-09-12T08:54:08;100988.56;;;19.32;94.36
6208;BME280;3137;51.550;7.060;2023-09-12T08:56:39;100990.25;;;19.33;94.40
6208;BME280;3137;51.550;7.060;2023-09-12T08:59:06;100988.38;;;19.33;94.21
6208;BME280;3137;51.550;7.060;2023-09-12T09:01:33;100980.06;;;19.41;93.80
6208;BME280;3137;51.550;7.060;2023-09-12T09:04:02;100987.84;;;19.51;94.59
6208;BME280;3137;51.550;7.060;2023-09-12T09:06:31;100996.22;;;19.56;94.74
6208;BME280;3137;51.550;7.060;2023-09-12T09:09:00;100998.34;;;19.67;94.11
6208;BME280;3137;51.550;7.060;2023-09-12T09:11:27;101004.00;;;19.72;94.68
6208;BME280;3137;51.550;7.060;2023-09-12T09:13:55;101008.19;;;19.81;94.31
6208;BME280;3137;51.550;7.060;2023-09-12T09:16:22;101008.00;;;19.96;94.72
6208;BME280;3137;51.550;7.060;2023-09-12T09:21:26;101023.03;;;20.12;94.05
6208;BME280;3137;51.550;7.060;2023-09-12T09:23:54;101016.59;;;20.13;94.30
6208;BME280;3137;51.550;7.060;2023-09-12T09:26:21;101019.94;;;20.15;94.05
6208;BME280;3137;51.550;7.060;2023-09-12T09:29:05;101018.88;;;20.16;93.78
6208;BME280;3137;51.550;7.060;2023-09-12T09:31:32;101021.59;;;20.16;93.12
6208;BME280;3137;51.550;7.060;2023-09-12T09:33:59;101034.97;;;20.11;91.76
6208;BME280;3137;51.550;7.060;2023-09-12T09:36:27;101035.16;;;20.09;90.93
6208;BME280;3137;51.550;7.060;2023-09-12T09:38:56;101031.19;;;19.98;90.34
6208;BME280;3137;51.550;7.060;2023-09-12T09:41:26;101039.94;;;20.00;90.17
6208;BME280;3137;51.550;7.060;2023-09-12T09:43:52;101033.72;;;20.06;90.02
6208;BME280;3137;51.550;7.060;2023-09-12T09:46:19;101038.06;;;20.07;89.90
6208;BME280;3137;51.550;7.060;2023-09-12T09:48:50;101035.38;;;20.07;89.98
6208;BME280;3137;51.550;7.060;2023-09-12T09:51:19;101043.97;;;20.11;89.92
6208;BME280;3137;51.550;7.060;2023-09-12T09:53:45;101043.97;;;20.11;90.17
6208;BME280;3137;51.550;7.060;2023-09-12T09:56:16;101039.97;;;20.14;89.97
6208;BME280;3137;51.550;7.060;2023-09-12T09:58:52;101037.69;;;20.17;90.55
6208;BME280;3137;51.550;7.060;2023-09-12T10:01:20;101032.91;;;20.19;90.12
6208;BME280;3137;51.550;7.060;2023-09-12T10:03:48;101037.72;;;20.24;89.72
6208;BME280;3137;51.550;7.060;2023-09-12T10:06:16;101043.31;;;20.29;89.66
6208;BME280;3137;51.550;7.060;2023-09-12T10:08:45;101037.94;;;20.35;89.59
6208;BME280;3137;51.550;7.060;2023-09-12T10:11:14;101042.34;;;20.36;89.17
6208;BME280;3137;51.550;7.060;2023-09-12T10:13:46;101041.72;;;20.47;88.72
6208;BME280;3137;51.550;7.060;2023-09-12T10:16:16;101043.41;;;20.48;88.67
6208;BME280;3137;51.550;7.060;2023-09-12T10:18:52;101030.03;;;20.54;88.22
6208;BME280;3137;51.550;7.060;2023-09-12T10:21:30;101042.56;;;20.74;86.22
6208;BME280;3137;51.550;7.060;2023-09-12T10:23:58;101046.53;;;20.78;84.76
6208;BME280;3137;51.550;7.060;2023-09-12T10:26:26;101046.28;;;20.80;85.04
6208;BME280;3137;51.550;7.060;2023-09-12T10:28:53;101033.78;;;20.79;85.16
6208;BME280;3137;51.550;7.060;2023-09-12T10:31:22;101038.56;;;20.83;85.25
6208;BME280;3137;51.550;7.060;2023-09-12T10:33:50;101029.16;;;20.86;85.72
6208;BME280;3137;51.550;7.060;2023-09-12T10:36:18;101036.69;;;20.90;85.84
6208;BME280;3137;51.550;7.060;2023-09-12T10:38:48;101021.63;;;20.94;85.96
6208;BME280;3137;51.550;7.060;2023-09-12T10:41:15;101022.44;;;20.95;86.08
6208;BME280;3137;51.550;7.060;2023-09-12T10:43:44;101020.75;;;21.01;85.33
6208;BME280;3137;51.550;7.060;2023-09-12T10:46:16;101010.31;;;21.04;84.83
6208;BME280;3137;51.550;7.060;2023-09-12T10:48:42;101010.28;;;21.11;84.70
6208;BME280;3137;51.550;7.060;2023-09-12T10:51:11;101013.63;;;21.19;84.40
6208;BME280;3137;51.550;7.060;2023-09-12T10:53:39;101018.41;;;21.30;84.69
6208;BME280;3137;51.550;7.060;2023-09-12T11:01:36;101016.50;;;21.37;84.21
6208;BME280;3137;51.550;7.060;2023-09-12T11:06:48;101012.69;;;21.45;82.82
6208;BME280;3137;51.550;7.060;2023-09-12T11:09:23;101016.88;;;21.48;82.00
6208;BME280;3137;51.550;7.060;2023-09-12T11:14:20;101005.34;;;21.52;81.66
6208;BME280;3137;51.550;7.060;2023-09-12T11:19:44;101001.56;;;21.60;81.95
6208;BME280;3137;51.550;7.060;2023-09-12T11:22:30;101000.06;;;21.64;81.59
6208;BME280;3137;51.550;7.060;2023-09-12T11:25:01;101003.78;;;21.69;80.60
6208;BME280;3137;51.550;7.060;2023-09-12T11:27:44;101000.16;;;21.82;79.82
6208;BME280;3137;51.550;7.060;2023-09-12T11:30:12;101003.97;;;21.74;81.10
6208;BME280;3137;51.550;7.060;2023-09-12T11:32:38;100994.75;;;21.75;81.25
6208;BME280;3137;51.550;7.060;2023-09-12T11:35:06;100991.22;;;21.75;81.52
6208;BME280;3137;51.550;7.060;2023-09-12T11:37:33;100986.59;;;21.75;80.85
6208;BME280;3137;51.550;7.060;2023-09-12T11:42:39;100988.22;;;21.83;81.01
6208;BME280;3137;51.550;7.060;2023-09-12T11:45:10;100990.09;;;21.89;80.90
6208;BME280;3137;51.550;7.060;2023-09-12T11:47:41;100998.44;;;21.94;80.79
6208;BME280;3137;51.550;7.060;2023-09-12T11:50:08;100990.69;;;21.98;80.00
6208;BME280;3137;51.550;7.060;2023-09-12T11:52:36;100998.41;;;22.01;79.86
6208;BME280;3137;51.550;7.060;2023-09-12T11:55:04;100997.97;;;22.04;79.94
6208;BME280;3137;51.550;7.060;2023-09-12T11:57:31;100999.81;;;22.10;79.33
6208;BME280;3137;51.550;7.060;2023-09-12T12:00:02;100992.81;;;22.20;79.11
6208;BME280;3137;51.550;7.060;2023-09-12T12:02:37;100987.53;;;22.25;79.43
6208;BME280;3137;51.550;7.060;2023-09-12T12:05:04;100993.81;;;22.26;79.85
6208;BME280;3137;51.550;7.060;2023-09-12T12:07:31;100990.03;;;22.27;79.73
6208;BME280;3137;51.550;7.060;2023-09-12T12:09:58;100985.66;;;22.26;79.94
6208;BME280;3137;51.550;7.060;2023-09-12T12:12:25;100985.44;;;22.27;79.26
6208;BME280;3137;51.550;7.060;2023-09-12T12:14:51;100985.47;;;22.46;78.15
6208;BME280;3137;51.550;7.060;2023-09-12T12:17:18;100978.09;;;22.53;76.70
6208;BME280;3137;51.550;7.060;2023-09-12T12:19:45;100977.13;;;22.41;77.26
6208;BME280;3137;51.550;7.060;2023-09-12T12:22:12;100985.09;;;22.42;77.83
6208;BME280;3137;51.550;7.060;2023-09-12T12:24:46;100981.91;;;22.45;78.97
6208;BME280;3137;51.550;7.060;2023-09-12T12:27:16;100977.53;;;22.44;77.96
6208;BME280;3137;51.550;7.060;2023-09-12T12:29:42;100973.75;;;22.45;77.95
6208;BME280;3137;51.550;7.060;2023-09-12T12:32:10;100974.38;;;22.47;78.04
6208;BME280;3137;51.550;7.060;2023-09-12T12:34:37;100977.25;;;22.52;77.96
6208;BME280;3137;51.550;7.060;2023-09-12T12:37:30;100978.69;;;22.80;76.83
6208;BME280;3137;51.550;7.060;2023-09-12T12:39:57;100972.28;;;22.67;75.09
6208;BME280;3137;51.550;7.060;2023-09-12T12:42:28;100972.28;;;22.67;75.90
6208;BME280;3137;51.550;7.060;2023-09-12T12:45:12;100977.81;;;22.61;76.66
6208;BME280;3137;51.550;7.060;2023-09-12T12:47:40;100970.22;;;22.69;75.99
6208;BME280;3137;51.550;7.060;2023-09-12T12:50:14;100966.91;;;22.61;76.53
6208;BME280;3137;51.550;7.060;2023-09-12T12:52:41;100966.75;;;22.56;77.17
6208;BME280;3137;51.550;7.060;2023-09-12T12:55:12;100963.94;;;22.62;76.91
6208;BME280;3137;51.550;7.060;2023-09-12T12:57:40;100957.66;;;22.62;76.88
6208;BME280;3137;51.550;7.060;2023-09-12T13:00:09;100956.66;;;22.56;77.09
6208;BME280;3137;51.550;7.060;2023-09-12T13:02:37;100950.72;;;22.66;76.22
6208;BME280;3137;51.550;7.060;2023-09-12T13:05:06;100949.09;;;22.58;76.44
6208;BME280;3137;51.550;7.060;2023-09-12T13:07:36;100948.50;;;22.56;76.92
6208;BME280;3137;51.550;7.060;2023-09-12T13:10:03;100951.75;;;22.65;76.25
6208;BME280;3137;51.550;7.060;2023-09-12T13:12:30;100944.16;;;22.73;75.47
6208;BME280;3137;51.550;7.060;2023-09-12T13:14:58;100944.47;;;23.02;75.59
6208;BME280;3137;51.550;7.060;2023-09-12T13:17:24;100935.81;;;23.23;73.88
6208;BME280;3137;51.550;7.060;2023-09-12T13:19:51;100923.41;;;23.39;74.94
6208;BME280;3137;51.550;7.060;2023-09-12T13:22:17;100917.59;;;23.35;73.61
6208;BME280;3137;51.550;7.060;2023-09-12T13:24:44;100913.28;;;23.28;75.17
6208;BME280;3137;51.550;7.060;2023-09-12T13:27:10;100914.78;;;23.12;75.72
6208;BME280;3137;51.550;7.060;2023-09-12T13:29:37;100910.56;;;23.28;74.70
6208;BME280;3137;51.550;7.060;2023-09-12T13:32:04;100909.78;;;23.39;72.91
6208;BME280;3137;51.550;7.060;2023-09-12T13:34:30;100906.94;;;23.15;73.84